Time;durP1;ratioP1;P1;durP2;ratioP2;P2;SDS_P1;SDS_P2;PMS_P1;PMS_P2;Temp;Humidity;BMP_temperature;BMP_pressure;BME280_temperature;BME280_humidity;BME280_pressure;Samples;Min_cycle;Max_cycle;Signal;HPM_P1;HPM_P2
2023/01/03 00:01:16;;;;;;;9.63;2.97;;;9.20;99.90;;;;;;6185366;23;20209;-77
2023/01/03 00:03:44;;;;;;;9.53;3.20;;;9.20;99.90;;;;;;6185686;23;20270;-77
2023/01/03 00:06:17;;;;;;;6.23;2.80;;;9.20;99.90;;;;;;6185867;23;20220;-77
2023/01/03 00:08:47;;;;;;;7.23;3.00;;;9.10;99.90;;;;;;6185839;23;20185;-80
2023/01/03 00:11:17;;;;;;;6.40;2.70;;;9.10;99.90;;;;;;6185306;23;20461;-78
2023/01/03 00:13:45;;;;;;;6.87;2.83;;;9.20;99.90;;;;;;6184106;23;20225;-76
2023/01/03 00:16:17;;;;;;;6.50;2.70;;;9.10;99.90;;;;;;6185211;23;20520;-81
2023/01/03 00:18:45;;;;;;;4.83;2.40;;;9.10;99.90;;;;;;6184382;23;20176;-79
2023/01/03 00:21:13;;;;;;;7.90;2.60;;;9.00;99.90;;;;;;6184979;23;20184;-77
2023/01/03 00:23:42;;;;;;;7.63;3.00;;;9.00;99.90;;;;;;6186598;23;20652;-76
2023/01/03 00:26:14;;;;;;;5.70;2.87;;;8.90;99.90;;;;;;6185271;23;20184;-77
2023/01/03 00:28:42;;;;;;;6.03;2.50;;;8.90;99.90;;;;;;6184764;23;20205;-74
2023/01/03 00:31:12;;;;;;;6.97;2.37;;;8.90;99.90;;;;;;6184816;23;20261;-77
2023/01/03 00:33:40;;;;;;;4.60;2.47;;;8.90;99.90;;;;;;6184596;23;20185;-75
2023/01/03 00:36:10;;;;;;;4.63;2.30;;;8.90;99.90;;;;;;6185185;23;20204;-77
2023/01/03 00:38:38;;;;;;;5.50;2.30;;;8.90;99.90;;;;;;6185180;23;20243;-78
2023/01/03 00:41:08;;;;;;;3.67;2.30;;;8.80;99.90;;;;;;6184675;23;20219;-78
2023/01/03 00:43:39;;;;;;;4.53;2.10;;;8.80;99.90;;;;;;6184690;23;20511;-78
2023/01/03 00:46:08;;;;;;;5.97;2.33;;;8.80;99.90;;;;;;6185030;23;20256;-77
2023/01/03 00:48:37;;;;;;;7.60;2.50;;;8.80;99.90;;;;;;6184644;23;20185;-78
2023/01/03 00:51:06;;;;;;;4.33;2.63;;;8.80;99.90;;;;;;6184284;23;20187;-77
2023/01/03 00:53:35;;;;;;;5.27;3.00;;;8.70;99.90;;;;;;6184480;23;20181;-76
2023/01/03 00:56:05;;;;;;;6.27;3.10;;;8.70;99.90;;;;;;6185043;23;20225;-79
2023/01/03 00:58:33;;;;;;;5.07;2.60;;;8.70;99.90;;;;;;6185266;23;20199;-79
2023/01/03 01:01:06;;;;;;;3.50;2.10;;;8.70;99.90;;;;;;6185081;23;20191;-75
2023/01/03 01:03:35;;;;;;;4.60;2.60;;;8.60;99.90;;;;;;6184828;23;20673;-77
2023/01/03 01:06:12;;;;;;;4.73;2.07;;;8.60;99.90;;;;;;6184239;23;20330;-78
2023/01/03 01:08:40;;;;;;;4.17;2.30;;;8.60;99.90;;;;;;6185302;23;20165;-78
2023/01/03 01:11:09;;;;;;;4.07;2.10;;;8.50;99.90;;;;;;6185674;23;20260;-76
2023/01/03 01:13:38;;;;;;;4.30;2.33;;;8.60;99.90;;;;;;6184893;23;20185;-77
2023/01/03 01:16:09;;;;;;;4.00;1.83;;;8.50;99.90;;;;;;6184527;23;20201;-78
2023/01/03 01:18:38;;;;;;;4.80;1.97;;;8.50;99.90;;;;;;6185406;23;20172;-75
2023/01/03 01:21:08;;;;;;;2.70;1.80;;;8.50;99.90;;;;;;6184451;23;20353;-80
2023/01/03 01:23:38;;;;;;;1.90;1.20;;;8.50;99.90;;;;;;6184204;23;20629;-79
2023/01/03 01:26:08;;;;;;;3.00;1.30;;;8.50;99.90;;;;;;6184189;23;20183;-81
2023/01/03 01:28:39;;;;;;;2.50;1.33;;;8.40;99.90;;;;;;6185088;23;20196;-79
2023/01/03 01:31:10;;;;;;;2.60;1.20;;;8.40;99.90;;;;;;6184974;23;20512;-81
2023/01/03 01:33:40;;;;;;;1.30;1.00;;;8.40;99.90;;;;;;6183607;23;20664;-78
2023/01/03 01:36:11;;;;;;;1.67;1.00;;;8.30;99.90;;;;;;6184497;23;20284;-78
2023/01/03 01:38:39;;;;;;;2.00;1.00;;;8.40;99.90;;;;;;6184261;23;20166;-78
2023/01/03 01:41:07;;;;;;;4.00;0.93;;;8.30;99.90;;;;;;6184189;23;20576;-78
2023/01/03 01:46:27;;;;;;;1.23;1.07;;;8.30;99.90;;;;;;6185085;23;20203;-81
2023/01/03 01:48:59;;;;;;;1.57;1.07;;;8.30;99.90;;;;;;6184131;23;20678;-75
2023/01/03 01:51:30;;;;;;;1.10;1.00;;;8.20;99.90;;;;;;6184157;23;20655;-77
2023/01/03 01:54:00;;;;;;;1.33;1.00;;;8.20;99.90;;;;;;6183837;23;20161;-78
2023/01/03 01:56:33;;;;;;;1.00;0.90;;;8.20;99.90;;;;;;6183903;23;20205;-78
2023/01/03 01:59:02;;;;;;;2.47;1.00;;;8.20;99.90;;;;;;6184115;23;20256;-75
2023/01/03 02:01:34;;;;;;;2.30;0.80;;;8.20;99.90;;;;;;6184813;23;20264;-79
2023/01/03 02:04:06;;;;;;;0.80;0.80;;;8.20;99.90;;;;;;6183699;23;20224;-81
2023/01/03 02:06:35;;;;;;;1.10;0.80;;;8.10;99.90;;;;;;6183891;23;20641;-81
2023/01/03 02:09:03;;;;;;;0.60;0.60;;;8.20;99.90;;;;;;6183029;23;20180;-79
2023/01/03 02:11:37;;;;;;;1.23;0.80;;;8.10;99.90;;;;;;6184191;23;20271;-79
2023/01/03 02:14:16;;;;;;;0.80;0.67;;;8.00;99.90;;;;;;6184054;23;20165;-78
2023/01/03 02:16:55;;;;;;;1.83;0.90;;;8.00;99.90;;;;;;6183846;23;20213;-81
2023/01/03 02:20:00;;;;;;;0.87;0.70;;;8.00;99.90;;;;;;6183943;23;20240;-77
2023/01/03 02:22:49;;;;;;;0.73;0.70;;;8.00;99.90;;;;;;6182706;23;20201;-79
2023/01/03 02:26:02;;;;;;;1.93;0.70;;;8.00;99.90;;;;;;6183645;23;20165;-77
2023/01/03 02:29:09;;;;;;;1.20;0.67;;;8.00;99.90;;;;;;6184282;23;20180;-81
2023/01/03 02:31:46;;;;;;;0.90;0.60;;;8.00;99.90;;;;;;6184075;23;20169;-80
2023/01/03 02:34:23;;;;;;;0.67;0.60;;;8.00;99.90;;;;;;6183836;23;20184;-80
2023/01/03 02:37:05;;;;;;;1.10;0.77;;;8.00;99.90;;;;;;6184679;23;20185;-78
2023/01/03 02:39:42;;;;;;;1.20;0.90;;;8.00;99.90;;;;;;6185150;23;20508;-79
2023/01/03 02:45:08;;;;;;;0.80;0.80;;;7.90;99.90;;;;;;6184300;23;20226;-79
2023/01/03 02:47:43;;;;;;;0.83;0.77;;;7.90;99.90;;;;;;6186232;23;20165;-79
2023/01/03 02:50:13;;;;;;;1.57;0.70;;;7.90;99.90;;;;;;6185975;23;20172;-78
2023/01/03 02:52:44;;;;;;;0.60;0.60;;;7.90;99.90;;;;;;6186365;23;20185;-80
2023/01/03 02:55:17;;;;;;;0.90;0.70;;;7.90;99.90;;;;;;6186777;23;20264;-77
2023/01/03 02:57:49;;;;;;;0.67;0.60;;;7.90;99.90;;;;;;6186610;23;20668;-80
2023/01/03 03:00:22;;;;;;;1.27;0.80;;;7.90;99.90;;;;;;6186020;23;20185;-76
2023/01/03 03:02:54;;;;;;;2.10;0.90;;;7.90;99.90;;;;;;6185914;23;20187;-76
2023/01/03 03:05:27;;;;;;;1.00;0.70;;;7.90;99.90;;;;;;6200433;23;20189;-81
2023/01/03 03:07:55;;;;;;;1.40;0.90;;;7.90;99.90;;;;;;6186076;23;20161;-78
2023/01/03 03:13:16;;;;;;;1.03;0.77;;;7.90;99.90;;;;;;6185751;23;20165;-75
2023/01/03 03:15:50;;;;;;;0.90;0.90;;;7.90;99.90;;;;;;6184624;23;20200;-74
2023/01/03 03:18:24;;;;;;;1.33;0.80;;;7.90;99.90;;;;;;6186209;23;20216;-78
2023/01/03 03:26:34;;;;;;;2.77;0.70;;;7.80;99.90;;;;;;6186026;23;20165;-79
2023/01/03 03:29:06;;;;;;;1.67;0.80;;;7.80;99.90;;;;;;6186039;23;20244;-78
2023/01/03 03:31:39;;;;;;;2.43;0.90;;;7.80;99.90;;;;;;6185766;23;20586;-81
2023/01/03 03:34:13;;;;;;;1.20;0.90;;;7.80;99.90;;;;;;6185928;23;20161;-78
2023/01/03 03:36:50;;;;;;;1.27;0.80;;;7.70;99.90;;;;;;6185094;23;20243;-78
2023/01/03 03:45:10;;;;;;;0.73;0.73;;;7.70;99.90;;;;;;6185509;23;20180;-77
2023/01/03 03:47:43;;;;;;;0.97;0.97;;;7.60;99.90;;;;;;6185753;23;20165;-80
2023/01/03 03:50:20;;;;;;;0.90;0.90;;;7.60;99.90;;;;;;6185348;23;20173;-77
2023/01/03 03:52:52;;;;;;;0.83;0.83;;;7.60;99.90;;;;;;6183936;23;20181;-77
2023/01/03 03:55:30;;;;;;;1.10;1.00;;;7.50;99.90;;;;;;6185171;23;20169;-81
2023/01/03 03:58:01;;;;;;;0.80;0.73;;;7.50;99.90;;;;;;6185126;23;20249;-79
2023/01/03 04:00:32;;;;;;;1.10;0.73;;;7.50;99.90;;;;;;6185164;23;20165;-81
2023/01/03 04:03:03;;;;;;;1.80;0.90;;;7.50;99.90;;;;;;6185455;23;20181;-80
2023/01/03 04:05:37;;;;;;;0.87;0.87;;;7.50;99.90;;;;;;6184859;23;20189;-80
2023/01/03 04:08:06;;;;;;;0.70;0.70;;;7.50;99.90;;;;;;6185069;23;20200;-80
2023/01/03 04:10:34;;;;;;;0.80;0.80;;;7.40;99.90;;;;;;6185071;23;20235;-82
2023/01/03 04:13:05;;;;;;;0.83;0.83;;;7.40;99.90;;;;;;6185183;23;20181;-79
2023/01/03 04:15:33;;;;;;;3.20;0.80;;;7.50;99.90;;;;;;6185675;23;20191;-78
2023/01/03 04:18:01;;;;;;;1.13;0.83;;;7.40;99.90;;;;;;6185384;23;20250;-78
2023/01/03 04:20:30;;;;;;;1.30;0.77;;;7.40;99.90;;;;;;6185328;23;20247;-78
2023/01/03 04:22:59;;;;;;;0.80;0.80;;;7.40;99.90;;;;;;6184539;23;20723;-80
2023/01/03 04:25:27;;;;;;;0.80;0.80;;;7.40;99.90;;;;;;6184936;23;20185;-77
2023/01/03 04:27:55;;;;;;;1.30;1.10;;;7.30;99.90;;;;;;6185240;23;20178;-80
2023/01/03 04:30:23;;;;;;;1.03;0.93;;;7.30;99.90;;;;;;6184269;23;20204;-81
2023/01/03 04:32:51;;;;;;;0.90;0.90;;;7.30;99.90;;;;;;6184604;23;20228;-81
2023/01/03 04:35:19;;;;;;;0.90;0.87;;;7.30;99.90;;;;;;6184487;23;20181;-79
2023/01/03 04:37:48;;;;;;;1.10;0.90;;;7.20;99.90;;;;;;6185145;23;20208;-80
2023/01/03 04:40:17;;;;;;;1.33;1.00;;;7.20;99.90;;;;;;6185184;23;20185;-79
2023/01/03 04:45:31;;;;;;;1.20;1.10;;;7.20;99.90;;;;;;6185309;23;20224;-80
2023/01/03 04:47:59;;;;;;;1.10;0.97;;;7.20;99.90;;;;;;6184059;23;20212;-81
2023/01/03 04:50:27;;;;;;;1.30;1.00;;;7.20;99.90;;;;;;6184337;23;20551;-78
2023/01/03 04:52:55;;;;;;;1.10;1.00;;;7.10;99.90;;;;;;6184991;23;20447;-80
2023/01/03 04:55:25;;;;;;;1.10;1.10;;;7.20;99.90;;;;;;6185331;23;20191;-80
2023/01/03 04:57:53;;;;;;;1.70;1.10;;;7.10;99.90;;;;;;6185004;23;20217;-81
2023/01/03 05:00:21;;;;;;;0.90;0.90;;;7.20;99.90;;;;;;6184759;23;20268;-81
2023/01/03 05:02:49;;;;;;;0.90;0.90;;;7.20;99.90;;;;;;6184851;23;20533;-76
2023/01/03 05:05:18;;;;;;;1.97;1.10;;;7.20;99.90;;;;;;6185066;23;20276;-79
2023/01/03 05:07:46;;;;;;;0.90;0.90;;;7.20;99.90;;;;;;6184679;23;20184;-81
2023/01/03 05:10:14;;;;;;;2.13;0.90;;;7.10;99.90;;;;;;6184931;23;20457;-81
2023/01/03 05:12:58;;;;;;;1.00;0.90;;;7.20;99.90;;;;;;6184193;23;20184;-80
2023/01/03 05:15:26;;;;;;;1.50;1.07;;;7.20;99.90;;;;;;6185249;23;20196;-77
2023/01/03 05:17:54;;;;;;;1.30;1.20;;;7.20;99.90;;;;;;6184226;23;20211;-78
2023/01/03 05:25:59;;;;;;;1.40;1.30;;;7.20;99.90;;;;;;6186220;23;20165;-76
2023/01/03 05:28:29;;;;;;;1.40;1.10;;;7.20;99.90;;;;;;6187082;23;20188;-77
2023/01/03 05:31:01;;;;;;;0.90;0.90;;;7.20;99.90;;;;;;6185661;23;20203;-75
2023/01/03 05:33:29;;;;;;;2.67;1.07;;;7.20;99.90;;;;;;6184352;23;20229;-77
2023/01/03 05:35:57;;;;;;;1.00;1.00;;;7.30;99.90;;;;;;6184418;23;20637;-77
2023/01/03 05:38:25;;;;;;;1.33;1.17;;;7.30;99.90;;;;;;6183576;23;20207;-74
2023/01/03 05:40:53;;;;;;;1.37;1.20;;;7.20;99.90;;;;;;6182579;23;20204;-81
2023/01/03 05:43:21;;;;;;;1.57;1.30;;;7.20;99.90;;;;;;6191272;23;20189;-80
2023/01/03 05:45:53;;;;;;;0.93;0.93;;;7.20;99.90;;;;;;6192150;23;20187;-79
2023/01/03 05:48:22;;;;;;;1.00;1.00;;;7.20;99.90;;;;;;6204635;23;20236;-77
2023/01/03 05:50:51;;;;;;;1.90;1.10;;;7.20;99.90;;;;;;6204644;23;20229;-76
2023/01/03 05:53:19;;;;;;;1.33;1.23;;;7.20;99.90;;;;;;6202297;23;20185;-81
2023/01/03 05:55:47;;;;;;;1.57;1.23;;;7.30;99.90;;;;;;6184543;23;20188;-80
2023/01/03 05:58:18;;;;;;;1.10;1.10;;;7.20;99.90;;;;;;6184092;23;20192;-77
2023/01/03 06:00:46;;;;;;;1.53;1.00;;;7.20;99.90;;;;;;6183710;23;20637;-81
2023/01/03 06:03:15;;;;;;;1.63;1.30;;;7.20;99.90;;;;;;6184176;23;20181;-82
2023/01/03 06:05:43;;;;;;;1.83;1.40;;;7.20;99.90;;;;;;6184048;23;20235;-77
2023/01/03 06:08:17;;;;;;;2.37;1.40;;;7.10;99.90;;;;;;6185051;23;20158;-80
2023/01/03 06:10:48;;;;;;;1.50;1.40;;;7.20;99.90;;;;;;6184915;23;20267;-80
2023/01/03 06:13:16;;;;;;;1.50;1.40;;;7.10;99.90;;;;;;6184877;23;20185;-81
2023/01/03 06:17:53;;;;;;;1.90;1.30;;;7.10;99.90;;;;;;6183822;23;20181;-80
2023/01/03 06:18:35;;;;;;;1.50;1.40;;;7.10;99.90;;;;;;6183809;23;20205;-81
2023/01/03 06:21:03;;;;;;;2.30;1.47;;;7.10;99.90;;;;;;6188059;23;20243;-79
2023/01/03 06:23:32;;;;;;;1.70;1.30;;;7.10;99.90;;;;;;6187637;23;20180;-81
2023/01/03 06:26:03;;;;;;;1.77;1.30;;;7.10;99.90;;;;;;6187694;23;20187;-79
2023/01/03 06:28:31;;;;;;;1.53;1.40;;;7.10;99.90;;;;;;6188173;23;20243;-79
2023/01/03 06:30:59;;;;;;;2.10;1.90;;;7.10;99.90;;;;;;6188573;23;20188;-79
2023/01/03 06:33:27;;;;;;;2.50;1.80;;;7.10;99.90;;;;;;6187804;23;20188;-79
2023/01/03 06:35:56;;;;;;;1.70;1.60;;;7.10;99.90;;;;;;6188251;23;20203;-81
2023/01/03 06:38:24;;;;;;;3.30;1.70;;;7.20;99.90;;;;;;6187411;23;20193;-78
2023/01/03 06:40:53;;;;;;;1.60;1.50;;;7.10;99.90;;;;;;6187646;23;20823;-78
2023/01/03 06:43:20;;;;;;;1.83;1.57;;;7.10;99.90;;;;;;6187100;23;20203;-79
2023/01/03 06:54:14;;;;;;;3.43;1.80;;;7.10;99.90;;;;;;6187104;23;20169;-80
2023/01/03 06:56:42;;;;;;;2.03;1.80;;;7.10;99.90;;;;;;6188301;23;20176;-80
2023/01/03 06:59:10;;;;;;;2.50;1.70;;;7.00;99.90;;;;;;6187859;23;20283;-80
2023/01/03 07:01:39;;;;;;;1.67;1.57;;;7.00;99.90;;;;;;6187781;23;20189;-79
2023/01/03 07:04:07;;;;;;;3.10;2.03;;;7.00;99.90;;;;;;6187495;23;20255;-80
2023/01/03 07:06:37;;;;;;;2.90;1.90;;;6.90;99.90;;;;;;6194676;23;20176;-78
2023/01/03 07:09:10;;;;;;;1.80;1.70;;;7.00;99.90;;;;;;6208556;23;20181;-80
2023/01/03 07:11:38;;;;;;;3.57;1.70;;;7.00;99.90;;;;;;6199151;23;20404;-76
2023/01/03 07:14:07;;;;;;;2.93;1.70;;;7.00;99.90;;;;;;6187633;23;20268;-77
2023/01/03 07:16:37;;;;;;;1.93;1.63;;;7.00;99.90;;;;;;6187502;23;20240;-75
2023/01/03 07:19:06;;;;;;;2.73;1.80;;;7.00;99.90;;;;;;6187331;23;20200;-78
2023/01/03 07:21:36;;;;;;;2.40;1.80;;;6.90;99.90;;;;;;6187612;23;20201;-76
2023/01/03 07:24:05;;;;;;;3.03;2.03;;;6.90;99.90;;;;;;6187742;23;20232;-77
2023/01/03 07:26:35;;;;;;;3.50;2.00;;;6.90;99.90;;;;;;6187734;23;20528;-79
2023/01/03 07:29:04;;;;;;;2.23;2.03;;;7.00;99.90;;;;;;6186958;23;20518;-77
2023/01/03 07:31:34;;;;;;;4.13;2.20;;;7.00;99.90;;;;;;6185960;23;20239;-79
2023/01/03 07:34:02;;;;;;;3.27;2.23;;;7.00;99.90;;;;;;6185645;23;20181;-79
2023/01/03 07:36:30;;;;;;;3.07;2.30;;;7.00;99.90;;;;;;6186107;23;20188;-76
2023/01/03 07:39:00;;;;;;;5.73;2.67;;;7.00;99.90;;;;;;6185669;23;20649;-79
2023/01/03 07:44:11;;;;;;;3.53;2.80;;;7.00;99.90;;;;;;6185206;23;20185;-74
2023/01/03 07:46:39;;;;;;;4.30;3.27;;;7.00;99.90;;;;;;6186031;23;20656;-79
2023/01/03 07:49:07;;;;;;;3.90;3.00;;;7.10;99.90;;;;;;6186012;23;20625;-79
2023/01/03 07:51:39;;;;;;;4.17;3.20;;;7.00;99.90;;;;;;6185471;23;20379;-80
2023/01/03 07:54:08;;;;;;;4.57;3.17;;;7.00;99.90;;;;;;6185643;23;20259;-79
2023/01/03 07:56:37;;;;;;;3.53;3.20;;;7.00;99.90;;;;;;6198961;23;20184;-78
2023/01/03 07:59:05;;;;;;;4.37;3.60;;;7.00;99.90;;;;;;6185789;23;20204;-81
2023/01/03 08:01:33;;;;;;;3.33;3.03;;;7.00;99.90;;;;;;6185386;23;20184;-78
2023/01/03 08:04:02;;;;;;;4.77;3.40;;;7.00;99.90;;;;;;6185316;23;20181;-80
2023/01/03 08:06:30;;;;;;;4.63;3.20;;;7.00;99.90;;;;;;6184934;23;20216;-80
2023/01/03 08:14:33;;;;;;;3.80;3.20;;;7.10;99.90;;;;;;6184836;23;20613;-77
2023/01/03 08:17:01;;;;;;;5.40;3.60;;;7.10;99.90;;;;;;6185816;23;20188;-81
2023/01/03 08:19:30;;;;;;;5.07;3.80;;;7.10;99.90;;;;;;6185075;23;20232;-81
2023/01/03 08:21:58;;;;;;;6.73;4.17;;;7.00;99.90;;;;;;6184775;23;20215;-79
2023/01/03 08:24:26;;;;;;;6.43;4.30;;;7.00;99.90;;;;;;6186054;23;20177;-78
2023/01/03 08:26:56;;;;;;;10.83;5.60;;;7.00;99.90;;;;;;6186278;23;20181;-78
2023/01/03 08:29:24;;;;;;;11.57;6.27;;;7.00;99.90;;;;;;6185196;23;20209;-81
2023/01/03 08:31:56;;;;;;;8.77;5.30;;;7.00;99.90;;;;;;6185541;23;20207;-80
2023/01/03 08:34:26;;;;;;;7.67;4.20;;;7.00;99.90;;;;;;6185833;23;20169;-79
2023/01/03 08:37:00;;;;;;;5.80;4.07;;;7.10;99.90;;;;;;6185568;23;20227;-80
2023/01/03 08:39:33;;;;;;;5.83;4.10;;;7.10;99.90;;;;;;6185788;23;20193;-80
2023/01/03 08:42:07;;;;;;;6.27;4.17;;;7.10;99.90;;;;;;6185086;23;20208;-77
2023/01/03 08:44:35;;;;;;;8.00;3.60;;;7.10;99.90;;;;;;6187264;23;20205;-80
2023/01/03 08:47:06;;;;;;;4.27;3.20;;;7.10;99.90;;;;;;6188939;23;20181;-78
2023/01/03 08:49:36;;;;;;;3.87;2.80;;;7.10;99.90;;;;;;6191838;23;20240;-75
2023/01/03 08:52:05;;;;;;;4.00;2.70;;;7.20;99.90;;;;;;6191369;23;20185;-78
2023/01/03 08:54:33;;;;;;;2.90;2.60;;;7.20;99.90;;;;;;6189037;23;20528;-80
2023/01/03 08:57:02;;;;;;;3.27;2.90;;;7.20;99.90;;;;;;6192164;23;20181;-80
2023/01/03 08:59:30;;;;;;;3.13;2.80;;;7.10;99.90;;;;;;6187526;23;20518;-79
2023/01/03 09:01:59;;;;;;;3.20;2.80;;;7.10;99.90;;;;;;6186070;23;20188;-79
2023/01/03 09:04:27;;;;;;;2.70;2.50;;;7.10;99.90;;;;;;6185136;23;20180;-80
2023/01/03 09:06:56;;;;;;;2.90;2.60;;;7.10;99.90;;;;;;6184356;23;20247;-78
2023/01/03 09:09:24;;;;;;;4.10;2.90;;;7.10;99.90;;;;;;6185379;23;20185;-81
2023/01/03 09:11:52;;;;;;;3.43;2.70;;;7.10;99.90;;;;;;6185091;23;20567;-78
2023/01/03 09:14:21;;;;;;;2.87;2.57;;;7.10;99.90;;;;;;6184672;23;20280;-80
2023/01/03 09:16:50;;;;;;;3.30;2.70;;;7.20;99.90;;;;;;6184672;23;20177;-80
2023/01/03 09:19:18;;;;;;;4.83;2.90;;;7.10;99.90;;;;;;6185439;23;20507;-79
2023/01/03 09:21:46;;;;;;;5.00;3.87;;;7.20;99.90;;;;;;6184489;23;20293;-80
2023/01/03 09:24:14;;;;;;;5.17;3.57;;;7.30;99.90;;;;;;6184303;23;20295;-79
2023/01/03 09:26:42;;;;;;;3.77;3.30;;;7.20;99.90;;;;;;6184177;23;20684;-77
2023/01/03 09:29:16;;;;;;;4.40;2.90;;;7.30;99.90;;;;;;6184665;23;20169;-75
2023/01/03 09:31:45;;;;;;;3.73;3.17;;;7.20;99.90;;;;;;6184055;23;20263;-76
2023/01/03 09:34:13;;;;;;;5.27;3.67;;;7.30;99.90;;;;;;6183429;23;20199;-76
2023/01/03 09:36:41;;;;;;;4.87;4.33;;;7.30;99.90;;;;;;6184007;23;20268;-76
2023/01/03 09:39:09;;;;;;;7.17;4.07;;;7.20;99.90;;;;;;6184382;23;20706;-75
2023/01/03 09:41:39;;;;;;;4.43;3.70;;;7.20;99.90;;;;;;6184866;23;20211;-75
2023/01/03 09:44:10;;;;;;;3.77;3.37;;;7.20;99.90;;;;;;6183419;23;20634;-77
2023/01/03 09:46:38;;;;;;;3.77;3.30;;;7.30;99.90;;;;;;6184839;23;20236;-80
2023/01/03 09:49:07;;;;;;;3.70;3.33;;;7.20;99.90;;;;;;6184986;23;20563;-81
2023/01/03 10:06:32;;;;;;;3.80;3.40;;;7.40;99.90;;;;;;6172231;23;20197;-79
2023/01/03 10:09:15;;;;;;;3.67;3.13;;;7.40;99.90;;;;;;6184136;23;20192;-79
2023/01/03 10:11:51;;;;;;;6.03;3.50;;;7.40;99.90;;;;;;6184511;23;20165;-77
2023/01/03 10:14:35;;;;;;;3.47;3.17;;;7.40;99.90;;;;;;6183883;23;20164;-78
2023/01/03 10:17:18;;;;;;;4.33;3.03;;;7.40;99.90;;;;;;6185583;23;20216;-77
2023/01/03 10:19:57;;;;;;;5.67;3.60;;;7.40;99.90;;;;;;6183356;23;20252;-78
2023/01/03 10:22:28;;;;;;;4.70;3.70;;;7.40;99.90;;;;;;6184108;23;20196;-77
2023/01/03 10:25:08;;;;;;;4.03;3.63;;;7.40;99.90;;;;;;6183884;23;20205;-76
2023/01/03 10:27:43;;;;;;;5.10;3.70;;;7.30;99.90;;;;;;6184434;23;20187;-77
2023/01/03 10:30:16;;;;;;;5.53;3.70;;;7.30;99.90;;;;;;6184532;23;20169;-76
2023/01/03 10:33:14;;;;;;;4.73;3.93;;;7.40;99.90;;;;;;6183597;23;20193;-78
2023/01/03 10:35:42;;;;;;;5.53;3.70;;;7.40;99.90;;;;;;6186248;23;20621;-77
2023/01/03 10:38:15;;;;;;;6.00;3.50;;;7.50;99.90;;;;;;6187137;23;20259;-77
2023/01/03 10:40:47;;;;;;;5.97;3.60;;;7.40;99.90;;;;;;6184542;23;20243;-78
2023/01/03 10:43:18;;;;;;;6.60;4.00;;;7.50;99.90;;;;;;6183500;23;20616;-79
2023/01/03 10:45:54;;;;;;;12.63;8.10;;;7.50;99.90;;;;;;6183061;23;20559;-78
2023/01/03 10:48:34;;;;;;;4.53;3.67;;;7.50;99.90;;;;;;6183021;23;20188;-79
2023/01/03 10:51:28;;;;;;;5.83;3.90;;;7.50;99.90;;;;;;6183686;23;20192;-79
2023/01/03 10:54:00;;;;;;;5.95;4.13;;;7.50;99.90;;;;;;6181444;23;20391;-79
2023/01/03 10:56:30;;;;;;;5.43;3.80;;;7.50;99.90;;;;;;6183506;23;20169;-78
2023/01/03 10:59:11;;;;;;;5.03;3.90;;;7.50;99.90;;;;;;6184259;23;20181;-79
2023/01/03 11:01:39;;;;;;;5.57;3.80;;;7.60;99.90;;;;;;6183706;23;20201;-76
2023/01/03 11:04:17;;;;;;;5.03;3.93;;;7.70;99.90;;;;;;6183256;23;20551;-78
2023/01/03 11:07:02;;;;;;;5.43;3.70;;;7.60;99.90;;;;;;6184940;23;20223;-78
2023/01/03 11:09:41;;;;;;;6.00;3.90;;;7.70;99.90;;;;;;6185925;23;20181;-77
2023/01/03 11:12:23;;;;;;;6.53;5.60;;;7.60;99.90;;;;;;6184642;23;20162;-79
2023/01/03 11:14:54;;;;;;;5.40;4.07;;;7.60;99.90;;;;;;6185744;23;20173;-79
2023/01/03 11:17:24;;;;;;;4.97;4.13;;;7.60;99.90;;;;;;6185847;23;20170;-79
2023/01/03 11:19:53;;;;;;;6.20;4.00;;;7.70;99.90;;;;;;6185041;23;20189;-79
2023/01/03 11:22:33;;;;;;;4.17;3.77;;;7.70;99.90;;;;;;6184535;23;20205;-78
2023/01/03 11:25:29;;;;;;;6.23;4.40;;;7.70;99.90;;;;;;6186163;23;20223;-79
2023/01/03 11:28:32;;;;;;;4.93;3.90;;;7.60;99.90;;;;;;6184988;23;20181;-79
2023/01/03 11:31:07;;;;;;;6.13;4.33;;;7.70;99.90;;;;;;6185461;23;20177;-78
2023/01/03 11:33:54;;;;;;;5.17;4.50;;;7.80;99.90;;;;;;6185163;23;20257;-77
2023/01/03 11:36:33;;;;;;;5.77;4.20;;;7.90;99.90;;;;;;6184502;23;20205;-79
2023/01/03 11:39:13;;;;;;;5.20;4.03;;;7.80;99.90;;;;;;6185046;23;20165;-78
2023/01/03 11:41:59;;;;;;;5.40;3.77;;;7.80;99.90;;;;;;6184707;23;20647;-79
2023/01/03 11:45:04;;;;;;;5.20;4.10;;;7.90;99.90;;;;;;6185645;23;20173;-77
2023/01/03 11:47:39;;;;;;;6.23;4.20;;;7.70;99.90;;;;;;6163854;23;20184;-78
2023/01/03 11:50:18;;;;;;;4.97;4.30;;;7.80;99.90;;;;;;6185008;23;20169;-78
2023/01/03 11:52:53;;;;;;;5.27;4.07;;;7.90;99.90;;;;;;6185231;23;20177;-81
2023/01/03 11:55:46;;;;;;;4.90;4.03;;;7.90;99.90;;;;;;6185340;23;20251;-78
2023/01/03 11:58:53;;;;;;;5.30;4.37;;;7.90;99.90;;;;;;6185768;23;20185;-79
2023/01/03 12:01:33;;;;;;;5.90;4.53;;;7.90;99.90;;;;;;6155527;23;20279;-78
2023/01/03 12:04:24;;;;;;;5.97;4.90;;;8.00;99.90;;;;;;6182981;23;20629;-79
2023/01/03 12:07:06;;;;;;;6.37;4.80;;;8.00;99.90;;;;;;6183621;23;20612;-79
2023/01/03 12:10:01;;;;;;;4.80;3.30;;;8.00;99.90;;;;;;6183185;23;20184;-79
2023/01/03 12:12:46;;;;;;;5.47;3.50;;;8.00;99.90;;;;;;6182970;23;20247;-79
2023/01/03 12:15:21;;;;;;;4.57;3.87;;;8.00;99.90;;;;;;6184142;23;20526;-79
2023/01/03 12:17:56;;;;;;;6.13;4.03;;;8.10;99.90;;;;;;6184087;23;20169;-80
2023/01/03 12:20:28;;;;;;;6.47;3.77;;;8.10;99.90;;;;;;6184369;23;20561;-79
2023/01/03 12:23:01;;;;;;;4.97;3.30;;;8.00;99.90;;;;;;6183853;23;20622;-77
2023/01/03 12:25:34;;;;;;;5.00;3.63;;;7.90;99.90;;;;;;6184968;23;20224;-78
2023/01/03 12:28:07;;;;;;;4.17;3.50;;;7.90;99.90;;;;;;6184983;23;20269;-76
2023/01/03 12:30:41;;;;;;;4.20;3.20;;;7.90;99.90;;;;;;6185537;23;20165;-79
2023/01/03 12:33:22;;;;;;;5.63;3.63;;;7.90;99.90;;;;;;6184573;23;20470;-78
2023/01/03 12:35:57;;;;;;;3.70;3.10;;;7.80;99.90;;;;;;6184467;23;20272;-76
2023/01/03 12:38:29;;;;;;;3.40;3.10;;;7.70;99.90;;;;;;6184778;23;20200;-77
2023/01/03 12:41:06;;;;;;;4.20;3.37;;;7.80;99.90;;;;;;6184461;23;20244;-78
2023/01/03 12:43:44;;;;;;;4.37;3.13;;;7.80;99.90;;;;;;6184645;23;20168;-78
2023/01/03 12:46:20;;;;;;;4.00;3.10;;;7.80;99.90;;;;;;6185082;23;20267;-79
2023/01/03 12:49:00;;;;;;;3.30;2.80;;;7.80;99.90;;;;;;6184583;23;20189;-78
2023/01/03 12:51:29;;;;;;;4.40;3.00;;;7.80;99.90;;;;;;6184753;23;20165;-79
2023/01/03 12:54:14;;;;;;;3.97;3.03;;;7.80;99.90;;;;;;6184221;23;20190;-79
2023/01/03 12:57:08;;;;;;;3.57;2.87;;;7.70;99.90;;;;;;6184336;23;20267;-78
2023/01/03 13:00:07;;;;;;;3.93;3.43;;;7.80;99.90;;;;;;6184302;23;20550;-77
2023/01/03 13:02:43;;;;;;;3.60;3.17;;;7.80;99.90;;;;;;6158491;23;20204;-78
2023/01/03 13:05:19;;;;;;;3.73;2.93;;;7.80;99.90;;;;;;6184929;23;20189;-79
2023/01/03 13:07:53;;;;;;;3.50;2.93;;;7.80;99.90;;;;;;6183974;23;20181;-78
2023/01/03 13:10:25;;;;;;;4.50;3.17;;;7.90;99.90;;;;;;6184685;23;20551;-78
2023/01/03 13:12:54;;;;;;;3.33;2.90;;;7.90;99.90;;;;;;6184564;23;20165;-79
2023/01/03 13:15:28;;;;;;;4.27;3.33;;;7.90;99.90;;;;;;6188081;23;20267;-78
2023/01/03 13:18:38;;;;;;;4.27;3.53;;;7.80;99.90;;;;;;6184610;23;20357;-78
2023/01/03 13:21:40;;;;;;;4.63;3.80;;;7.70;99.90;;;;;;6185022;23;20598;-80
2023/01/03 13:24:09;;;;;;;5.83;3.80;;;7.80;99.90;;;;;;6152449;23;20187;-75
2023/01/03 13:26:37;;;;;;;6.27;4.20;;;7.80;99.90;;;;;;6189124;23;20502;-74
2023/01/03 13:29:41;;;;;;;5.23;4.07;;;7.90;99.90;;;;;;6191062;23;20263;-78
2023/01/03 13:32:24;;;;;;;3.37;2.70;;;7.90;99.90;;;;;;6193008;23;20251;-75
2023/01/03 13:35:19;;;;;;;5.43;2.70;;;7.90;99.90;;;;;;6191281;23;20229;-79
2023/01/03 13:37:49;;;;;;;4.57;3.20;;;7.90;99.90;;;;;;6192596;23;20255;-75
2023/01/03 13:40:27;;;;;;;4.80;3.30;;;7.80;99.90;;;;;;6190641;23;20185;-75
2023/01/03 13:43:18;;;;;;;4.53;2.97;;;7.80;99.90;;;;;;6190749;23;20208;-78
2023/01/03 13:45:52;;;;;;;4.30;3.23;;;7.70;99.90;;;;;;6190264;23;20165;-76
2023/01/03 13:48:33;;;;;;;3.90;3.10;;;7.70;99.90;;;;;;6190261;23;20332;-76
2023/01/03 13:51:22;;;;;;;4.80;3.20;;;7.70;99.90;;;;;;6189194;23;20185;-77
2023/01/03 13:53:57;;;;;;;5.47;4.00;;;7.70;99.90;;;;;;6189216;23;20180;-76
2023/01/03 13:56:28;;;;;;;4.17;3.30;;;7.70;99.90;;;;;;6191547;23;20173;-79
2023/01/03 13:59:10;;;;;;;3.77;3.23;;;7.70;99.90;;;;;;6189751;23;20165;-76
2023/01/03 14:01:59;;;;;;;6.37;3.63;;;7.60;99.90;;;;;;6190379;23;20235;-75
2023/01/03 14:05:03;;;;;;;4.70;3.77;;;7.50;99.90;;;;;;6190603;23;20200;-76
2023/01/03 14:08:14;;;;;;;4.53;3.07;;;7.50;99.90;;;;;;6142428;23;20705;-80
2023/01/03 14:11:06;;;;;;;5.67;3.50;;;7.50;99.90;;;;;;6189787;23;20244;-77
2023/01/03 14:13:43;;;;;;;5.77;4.00;;;7.50;99.90;;;;;;6165179;23;20279;-76
2023/01/03 14:16:22;;;;;;;6.17;4.17;;;7.60;99.90;;;;;;6187857;23;20259;-78
2023/01/03 14:19:00;;;;;;;4.90;3.27;;;7.60;99.90;;;;;;6186876;23;20196;-76
2023/01/03 14:21:40;;;;;;;3.87;2.93;;;7.60;99.90;;;;;;6187674;23;20200;-78
2023/01/03 14:24:16;;;;;;;3.40;2.70;;;7.70;99.90;;;;;;6187499;23;20732;-75
2023/01/03 14:26:44;;;;;;;3.97;2.80;;;7.70;99.90;;;;;;6189360;23;20248;-74
2023/01/03 14:29:19;;;;;;;2.90;2.50;;;7.60;99.90;;;;;;6192340;23;20263;-75
2023/01/03 14:31:52;;;;;;;4.17;2.47;;;7.70;99.90;;;;;;6190680;23;20188;-78